sensor_id;sensor_type;location;lat;lon;timestamp;P1;durP1;ratioP1;P2;durP2;ratioP2
7517;SDS011;3800;48.922;9.444;2023-03-31T00:00:17;3.83;;;2.07;;
7517;SDS011;3800;48.922;9.444;2023-03-31T00:02:45;3.87;;;1.90;;
7517;SDS011;3800;48.922;9.444;2023-03-31T00:05:14;5.67;;;2.03;;
7517;SDS011;3800;48.922;9.444;2023-03-31T00:07:42;3.77;;;2.00;;
7517;SDS011;3800;48.922;9.444;2023-03-31T00:10:11;4.53;;;1.83;;
7517;SDS011;3800;48.922;9.444;2023-03-31T00:12:39;4.43;;;1.97;;
7517;SDS011;3800;48.922;9.444;2023-03-31T00:15:08;3.80;;;1.90;;
7517;SDS011;3800;48.922;9.444;2023-03-31T00:17:37;2.77;;;1.93;;
7517;SDS011;3800;48.922;9.444;2023-03-31T00:20:05;4.43;;;1.90;;
7517;SDS011;3800;48.922;9.444;2023-03-31T00:22:34;3.80;;;1.60;;
7517;SDS011;3800;48.922;9.444;2023-03-31T00:25:05;5.53;;;2.00;;
7517;SDS011;3800;48.922;9.444;2023-03-31T00:27:35;5.07;;;2.20;;
7517;SDS011;3800;48.922;9.444;2023-03-31T00:30:04;6.07;;;2.13;;
7517;SDS011;3800;48.922;9.444;2023-03-31T00:32:34;6.87;;;2.03;;
7517;SDS011;3800;48.922;9.444;2023-03-31T00:35:02;7.43;;;2.33;;
7517;SDS011;3800;48.922;9.444;2023-03-31T00:37:31;5.27;;;2.07;;
7517;SDS011;3800;48.922;9.444;2023-03-31T00:40:00;3.83;;;2.10;;
7517;SDS011;3800;48.922;9.444;2023-03-31T00:42:28;4.53;;;2.60;;
7517;SDS011;3800;48.922;9.444;2023-03-31T00:47:50;5.67;;;2.40;;
7517;SDS011;3800;48.922;9.444;2023-03-31T00:50:22;7.10;;;3.33;;
7517;SDS011;3800;48.922;9.444;2023-03-31T00:52:50;5.93;;;2.80;;
7517;SDS011;3800;48.922;9.444;2023-03-31T00:55:22;4.37;;;2.60;;
7517;SDS011;3800;48.922;9.444;2023-03-31T00:57:49;3.80;;;2.70;;
7517;SDS011;3800;48.922;9.444;2023-03-31T01:00:18;4.10;;;2.60;;
7517;SDS011;3800;48.922;9.444;2023-03-31T01:02:47;6.17;;;2.80;;
7517;SDS011;3800;48.922;9.444;2023-03-31T01:05:22;6.33;;;3.33;;
7517;SDS011;3800;48.922;9.444;2023-03-31T01:07:49;4.67;;;2.70;;
7517;SDS011;3800;48.922;9.444;2023-03-31T01:10:17;5.83;;;2.90;;
7517;SDS011;3800;48.922;9.444;2023-03-31T01:12:47;4.03;;;2.60;;
7517;SDS011;3800;48.922;9.444;2023-03-31T01:15:15;5.07;;;3.03;;
7517;SDS011;3800;48.922;9.444;2023-03-31T01:17:43;4.87;;;2.50;;
7517;SDS011;3800;48.922;9.444;2023-03-31T01:23:06;5.03;;;2.70;;
7517;SDS011;3800;48.922;9.444;2023-03-31T01:29:07;5.13;;;2.70;;
7517;SDS011;3800;48.922;9.444;2023-03-31T01:37:40;7.03;;;2.83;;
7517;SDS011;3800;48.922;9.444;2023-03-31T01:40:23;6.93;;;2.90;;
7517;SDS011;3800;48.922;9.444;2023-03-31T01:43:24;5.80;;;2.20;;
7517;SDS011;3800;48.922;9.444;2023-03-31T01:46:01;5.90;;;2.33;;
7517;SDS011;3800;48.922;9.444;2023-03-31T01:48:48;6.70;;;2.43;;
7517;SDS011;3800;48.922;9.444;2023-03-31T01:51:38;4.90;;;2.07;;
7517;SDS011;3800;48.922;9.444;2023-03-31T01:54:12;6.07;;;2.60;;
7517;SDS011;3800;48.922;9.444;2023-03-31T01:56:53;4.37;;;2.37;;
7517;SDS011;3800;48.922;9.444;2023-03-31T01:59:26;3.77;;;1.70;;
7517;SDS011;3800;48.922;9.444;2023-03-31T02:01:58;5.20;;;2.47;;
7517;SDS011;3800;48.922;9.444;2023-03-31T02:04:32;5.07;;;2.10;;
7517;SDS011;3800;48.922;9.444;2023-03-31T02:07:06;7.40;;;2.37;;
7517;SDS011;3800;48.922;9.444;2023-03-31T02:09:34;7.83;;;2.40;;
7517;SDS011;3800;48.922;9.444;2023-03-31T02:12:03;7.43;;;2.30;;
7517;SDS011;3800;48.922;9.444;2023-03-31T02:14:32;7.10;;;2.30;;
7517;SDS011;3800;48.922;9.444;2023-03-31T02:17:00;5.63;;;2.30;;
7517;SDS011;3800;48.922;9.444;2023-03-31T02:19:30;4.53;;;2.70;;
7517;SDS011;3800;48.922;9.444;2023-03-31T02:21:57;8.27;;;2.57;;
7517;SDS011;3800;48.922;9.444;2023-03-31T02:24:26;6.00;;;2.43;;
7517;SDS011;3800;48.922;9.444;2023-03-31T02:26:59;7.07;;;2.10;;
7517;SDS011;3800;48.922;9.444;2023-03-31T02:29:24;7.13;;;2.20;;
7517;SDS011;3800;48.922;9.444;2023-03-31T02:32:05;6.87;;;2.30;;
7517;SDS011;3800;48.922;9.444;2023-03-31T02:34:34;5.50;;;2.20;;
7517;SDS011;3800;48.922;9.444;2023-03-31T02:37:02;4.53;;;2.13;;
7517;SDS011;3800;48.922;9.444;2023-03-31T02:39:33;6.23;;;2.27;;
7517;SDS011;3800;48.922;9.444;2023-03-31T02:42:02;5.40;;;2.50;;
7517;SDS011;3800;48.922;9.444;2023-03-31T02:44:31;4.67;;;2.23;;
7517;SDS011;3800;48.922;9.444;2023-03-31T02:47:07;4.27;;;2.30;;
7517;SDS011;3800;48.922;9.444;2023-03-31T02:49:34;5.83;;;2.13;;
7517;SDS011;3800;48.922;9.444;2023-03-31T02:52:22;5.73;;;2.00;;
7517;SDS011;3800;48.922;9.444;2023-03-31T02:57:49;5.47;;;1.90;;
7517;SDS011;3800;48.922;9.444;2023-03-31T03:00:36;6.07;;;2.00;;
7517;SDS011;3800;48.922;9.444;2023-03-31T03:05:46;7.10;;;2.30;;
7517;SDS011;3800;48.922;9.444;2023-03-31T03:08:23;5.60;;;2.10;;
7517;SDS011;3800;48.922;9.444;2023-03-31T03:11:06;4.23;;;2.20;;
7517;SDS011;3800;48.922;9.444;2023-03-31T03:13:42;6.83;;;2.27;;
7517;SDS011;3800;48.922;9.444;2023-03-31T03:16:28;5.00;;;2.10;;
7517;SDS011;3800;48.922;9.444;2023-03-31T03:18:57;4.53;;;2.20;;
7517;SDS011;3800;48.922;9.444;2023-03-31T03:21:25;5.53;;;2.03;;
7517;SDS011;3800;48.922;9.444;2023-03-31T03:23:53;2.83;;;2.13;;
7517;SDS011;3800;48.922;9.444;2023-03-31T03:26:21;4.97;;;2.30;;
7517;SDS011;3800;48.922;9.444;2023-03-31T03:28:50;5.13;;;2.13;;
7517;SDS011;3800;48.922;9.444;2023-03-31T03:31:18;5.57;;;2.50;;
7517;SDS011;3800;48.922;9.444;2023-03-31T03:33:46;5.07;;;2.30;;
7517;SDS011;3800;48.922;9.444;2023-03-31T03:36:15;4.60;;;2.30;;
7517;SDS011;3800;48.922;9.444;2023-03-31T03:38:43;5.60;;;2.30;;
7517;SDS011;3800;48.922;9.444;2023-03-31T03:41:12;5.10;;;2.53;;
7517;SDS011;3800;48.922;9.444;2023-03-31T03:43:40;4.50;;;2.40;;
7517;SDS011;3800;48.922;9.444;2023-03-31T03:46:08;4.03;;;2.30;;
7517;SDS011;3800;48.922;9.444;2023-03-31T03:48:36;6.50;;;2.40;;
7517;SDS011;3800;48.922;9.444;2023-03-31T03:51:05;4.87;;;2.33;;
7517;SDS011;3800;48.922;9.444;2023-03-31T03:53:33;4.40;;;2.40;;
7517;SDS011;3800;48.922;9.444;2023-03-31T03:56:02;5.67;;;2.37;;
7517;SDS011;3800;48.922;9.444;2023-03-31T03:58:30;5.27;;;2.40;;
7517;SDS011;3800;48.922;9.444;2023-03-31T04:00:58;6.37;;;2.53;;
7517;SDS011;3800;48.922;9.444;2023-03-31T04:03:27;5.33;;;2.70;;
7517;SDS011;3800;48.922;9.444;2023-03-31T04:05:56;5.33;;;2.80;;
7517;SDS011;3800;48.922;9.444;2023-03-31T04:08:24;5.40;;;2.53;;
7517;SDS011;3800;48.922;9.444;2023-03-31T04:10:52;5.20;;;2.90;;
7517;SDS011;3800;48.922;9.444;2023-03-31T04:13:21;4.93;;;2.50;;
7517;SDS011;3800;48.922;9.444;2023-03-31T04:15:50;3.33;;;2.30;;
7517;SDS011;3800;48.922;9.444;2023-03-31T04:18:19;3.77;;;2.40;;
7517;SDS011;3800;48.922;9.444;2023-03-31T04:20:49;3.80;;;2.33;;
7517;SDS011;3800;48.922;9.444;2023-03-31T04:23:20;3.60;;;2.40;;
7517;SDS011;3800;48.922;9.444;2023-03-31T04:25:50;5.20;;;2.37;;
7517;SDS011;3800;48.922;9.444;2023-03-31T04:28:18;7.17;;;2.30;;
7517;SDS011;3800;48.922;9.444;2023-03-31T04:30:47;6.70;;;2.20;;
7517;SDS011;3800;48.922;9.444;2023-03-31T04:33:15;7.90;;;2.70;;
7517;SDS011;3800;48.922;9.444;2023-03-31T04:35:43;5.43;;;2.80;;
7517;SDS011;3800;48.922;9.444;2023-03-31T04:38:16;5.87;;;2.47;;
7517;SDS011;3800;48.922;9.444;2023-03-31T04:40:46;5.37;;;2.30;;
7517;SDS011;3800;48.922;9.444;2023-03-31T04:43:13;4.43;;;2.37;;
7517;SDS011;3800;48.922;9.444;2023-03-31T04:45:41;4.37;;;2.50;;
7517;SDS011;3800;48.922;9.444;2023-03-31T04:48:10;4.27;;;2.70;;
7517;SDS011;3800;48.922;9.444;2023-03-31T04:50:38;5.33;;;2.73;;
7517;SDS011;3800;48.922;9.444;2023-03-31T04:53:06;4.57;;;2.67;;
7517;SDS011;3800;48.922;9.444;2023-03-31T04:55:34;5.27;;;2.80;;
7517;SDS011;3800;48.922;9.444;2023-03-31T04:58:02;4.77;;;2.60;;
7517;SDS011;3800;48.922;9.444;2023-03-31T05:00:31;2.93;;;2.37;;
7517;SDS011;3800;48.922;9.444;2023-03-31T05:02:59;6.67;;;2.83;;
7517;SDS011;3800;48.922;9.444;2023-03-31T05:05:27;5.73;;;2.80;;
7517;SDS011;3800;48.922;9.444;2023-03-31T05:07:56;5.63;;;2.57;;
7517;SDS011;3800;48.922;9.444;2023-03-31T05:10:24;8.10;;;2.70;;
7517;SDS011;3800;48.922;9.444;2023-03-31T05:12:53;5.33;;;2.90;;
7517;SDS011;3800;48.922;9.444;2023-03-31T05:15:21;7.03;;;3.03;;
7517;SDS011;3800;48.922;9.444;2023-03-31T05:17:50;7.77;;;2.97;;
7517;SDS011;3800;48.922;9.444;2023-03-31T05:20:18;4.87;;;2.77;;
7517;SDS011;3800;48.922;9.444;2023-03-31T05:22:46;7.43;;;3.10;;
7517;SDS011;3800;48.922;9.444;2023-03-31T05:25:15;6.30;;;2.90;;
7517;SDS011;3800;48.922;9.444;2023-03-31T05:27:45;4.27;;;2.90;;
7517;SDS011;3800;48.922;9.444;2023-03-31T05:30:13;5.03;;;3.33;;
7517;SDS011;3800;48.922;9.444;2023-03-31T05:32:41;5.07;;;2.80;;
7517;SDS011;3800;48.922;9.444;2023-03-31T05:35:09;4.97;;;2.80;;
7517;SDS011;3800;48.922;9.444;2023-03-31T05:37:37;7.43;;;3.07;;
7517;SDS011;3800;48.922;9.444;2023-03-31T05:40:06;7.23;;;3.80;;
7517;SDS011;3800;48.922;9.444;2023-03-31T05:42:36;5.63;;;3.57;;
7517;SDS011;3800;48.922;9.444;2023-03-31T05:45:05;7.23;;;3.70;;
7517;SDS011;3800;48.922;9.444;2023-03-31T05:47:34;5.97;;;3.40;;
7517;SDS011;3800;48.922;9.444;2023-03-31T05:50:02;5.00;;;3.47;;
7517;SDS011;3800;48.922;9.444;2023-03-31T05:52:31;5.63;;;3.43;;
7517;SDS011;3800;48.922;9.444;2023-03-31T05:54:59;6.13;;;3.70;;
7517;SDS011;3800;48.922;9.444;2023-03-31T05:57:28;7.23;;;4.20;;
7517;SDS011;3800;48.922;9.444;2023-03-31T05:59:57;4.47;;;3.17;;
7517;SDS011;3800;48.922;9.444;2023-03-31T06:02:25;7.60;;;3.67;;
7517;SDS011;3800;48.922;9.444;2023-03-31T06:04:54;4.87;;;3.67;;
7517;SDS011;3800;48.922;9.444;2023-03-31T06:07:22;6.70;;;3.60;;
7517;SDS011;3800;48.922;9.444;2023-03-31T06:09:50;6.97;;;4.00;;
7517;SDS011;3800;48.922;9.444;2023-03-31T06:12:19;8.20;;;3.93;;
7517;SDS011;3800;48.922;9.444;2023-03-31T06:14:47;9.73;;;4.47;;
7517;SDS011;3800;48.922;9.444;2023-03-31T06:17:15;6.83;;;4.27;;
7517;SDS011;3800;48.922;9.444;2023-03-31T06:19:44;8.23;;;4.30;;
7517;SDS011;3800;48.922;9.444;2023-03-31T06:22:12;6.90;;;4.30;;
7517;SDS011;3800;48.922;9.444;2023-03-31T06:24:40;6.87;;;4.17;;
7517;SDS011;3800;48.922;9.444;2023-03-31T06:27:08;8.13;;;4.47;;
7517;SDS011;3800;48.922;9.444;2023-03-31T06:29:37;9.43;;;4.50;;
7517;SDS011;3800;48.922;9.444;2023-03-31T06:32:05;7.97;;;4.30;;
7517;SDS011;3800;48.922;9.444;2023-03-31T06:34:33;6.20;;;3.93;;
7517;SDS011;3800;48.922;9.444;2023-03-31T06:37:01;5.77;;;4.03;;
7517;SDS011;3800;48.922;9.444;2023-03-31T06:39:30;6.97;;;4.20;;
7517;SDS011;3800;48.922;9.444;2023-03-31T06:41:58;6.17;;;4.37;;
7517;SDS011;3800;48.922;9.444;2023-03-31T06:44:26;7.13;;;4.30;;
7517;SDS011;3800;48.922;9.444;2023-03-31T06:46:54;5.20;;;4.00;;
7517;SDS011;3800;48.922;9.444;2023-03-31T06:49:23;7.70;;;4.20;;
7517;SDS011;3800;48.922;9.444;2023-03-31T06:51:52;10.17;;;4.60;;
7517;SDS011;3800;48.922;9.444;2023-03-31T06:54:20;5.70;;;4.20;;
7517;SDS011;3800;48.922;9.444;2023-03-31T06:56:48;9.37;;;4.70;;
7517;SDS011;3800;48.922;9.444;2023-03-31T06:59:17;8.57;;;4.67;;
7517;SDS011;3800;48.922;9.444;2023-03-31T07:01:45;8.03;;;4.90;;
7517;SDS011;3800;48.922;9.444;2023-03-31T07:04:13;7.67;;;4.53;;
7517;SDS011;3800;48.922;9.444;2023-03-31T07:06:41;10.30;;;4.90;;
7517;SDS011;3800;48.922;9.444;2023-03-31T07:09:10;9.33;;;4.60;;
7517;SDS011;3800;48.922;9.444;2023-03-31T07:11:39;9.10;;;4.53;;
7517;SDS011;3800;48.922;9.444;2023-03-31T07:14:07;10.63;;;5.03;;
7517;SDS011;3800;48.922;9.444;2023-03-31T07:16:35;10.10;;;5.03;;
7517;SDS011;3800;48.922;9.444;2023-03-31T07:19:03;8.53;;;5.10;;
7517;SDS011;3800;48.922;9.444;2023-03-31T07:21:32;10.93;;;5.80;;
7517;SDS011;3800;48.922;9.444;2023-03-31T07:24:00;10.10;;;5.43;;
7517;SDS011;3800;48.922;9.444;2023-03-31T07:26:28;34.83;;;16.80;;
7517;SDS011;3800;48.922;9.444;2023-03-31T07:28:56;14.67;;;8.43;;
7517;SDS011;3800;48.922;9.444;2023-03-31T07:31:25;8.73;;;5.20;;
7517;SDS011;3800;48.922;9.444;2023-03-31T07:33:53;9.07;;;4.50;;
7517;SDS011;3800;48.922;9.444;2023-03-31T07:36:21;8.57;;;4.77;;
7517;SDS011;3800;48.922;9.444;2023-03-31T07:38:49;7.27;;;5.00;;
7517;SDS011;3800;48.922;9.444;2023-03-31T07:41:18;6.50;;;4.03;;
7517;SDS011;3800;48.922;9.444;2023-03-31T07:43:46;7.20;;;4.00;;
7517;SDS011;3800;48.922;9.444;2023-03-31T07:46:17;6.73;;;3.53;;
7517;SDS011;3800;48.922;9.444;2023-03-31T07:48:46;5.33;;;3.73;;
7517;SDS011;3800;48.922;9.444;2023-03-31T07:51:14;7.40;;;3.83;;
7517;SDS011;3800;48.922;9.444;2023-03-31T07:53:42;4.80;;;3.53;;
7517;SDS011;3800;48.922;9.444;2023-03-31T07:56:11;4.90;;;3.47;;
7517;SDS011;3800;48.922;9.444;2023-03-31T07:58:39;6.67;;;3.27;;
7517;SDS011;3800;48.922;9.444;2023-03-31T08:01:07;5.03;;;3.50;;
7517;SDS011;3800;48.922;9.444;2023-03-31T08:03:35;3.83;;;3.13;;
7517;SDS011;3800;48.922;9.444;2023-03-31T08:06:03;4.77;;;2.80;;
7517;SDS011;3800;48.922;9.444;2023-03-31T08:08:32;4.10;;;2.70;;
7517;SDS011;3800;48.922;9.444;2023-03-31T08:11:00;3.97;;;2.20;;
7517;SDS011;3800;48.922;9.444;2023-03-31T08:13:29;3.63;;;2.20;;
7517;SDS011;3800;48.922;9.444;2023-03-31T08:15:57;3.37;;;2.03;;
7517;SDS011;3800;48.922;9.444;2023-03-31T08:18:26;3.77;;;2.10;;
7517;SDS011;3800;48.922;9.444;2023-03-31T08:20:54;3.10;;;2.40;;
7517;SDS011;3800;48.922;9.444;2023-03-31T08:23:22;2.90;;;2.00;;
7517;SDS011;3800;48.922;9.444;2023-03-31T08:25:50;3.13;;;2.00;;
7517;SDS011;3800;48.922;9.444;2023-03-31T08:28:19;2.43;;;1.70;;
7517;SDS011;3800;48.922;9.444;2023-03-31T08:30:48;2.70;;;1.87;;
7517;SDS011;3800;48.922;9.444;2023-03-31T08:33:16;2.40;;;1.80;;
7517;SDS011;3800;48.922;9.444;2023-03-31T08:35:44;3.47;;;1.80;;
7517;SDS011;3800;48.922;9.444;2023-03-31T08:38:12;4.47;;;1.80;;
7517;SDS011;3800;48.922;9.444;2023-03-31T08:40:41;3.37;;;1.70;;
7517;SDS011;3800;48.922;9.444;2023-03-31T08:43:11;2.73;;;1.63;;
7517;SDS011;3800;48.922;9.444;2023-03-31T08:45:38;2.60;;;1.60;;
7517;SDS011;3800;48.922;9.444;2023-03-31T08:50:45;1.83;;;1.33;;
7517;SDS011;3800;48.922;9.444;2023-03-31T08:55:48;2.43;;;1.40;;
7517;SDS011;3800;48.922;9.444;2023-03-31T08:58:22;2.07;;;1.57;;
7517;SDS011;3800;48.922;9.444;2023-03-31T09:01:01;2.53;;;1.60;;
7517;SDS011;3800;48.922;9.444;2023-03-31T09:04:01;2.77;;;1.83;;
7517;SDS011;3800;48.922;9.444;2023-03-31T09:06:42;4.80;;;1.77;;
7517;SDS011;3800;48.922;9.444;2023-03-31T09:09:38;3.73;;;1.50;;
7517;SDS011;3800;48.922;9.444;2023-03-31T09:12:25;3.93;;;1.60;;
7517;SDS011;3800;48.922;9.444;2023-03-31T09:14:59;5.43;;;1.73;;
7517;SDS011;3800;48.922;9.444;2023-03-31T09:17:28;5.10;;;1.60;;
7517;SDS011;3800;48.922;9.444;2023-03-31T09:19:59;3.73;;;1.67;;
7517;SDS011;3800;48.922;9.444;2023-03-31T09:22:44;3.77;;;1.57;;
7517;SDS011;3800;48.922;9.444;2023-03-31T09:25:15;2.40;;;1.50;;
7517;SDS011;3800;48.922;9.444;2023-03-31T09:27:42;28.63;;;5.63;;
7517;SDS011;3800;48.922;9.444;2023-03-31T09:30:14;9.63;;;2.17;;
7517;SDS011;3800;48.922;9.444;2023-03-31T09:33:05;32.70;;;5.40;;
7517;SDS011;3800;48.922;9.444;2023-03-31T09:35:38;2.30;;;1.50;;
7517;SDS011;3800;48.922;9.444;2023-03-31T09:38:09;10.00;;;2.00;;
7517;SDS011;3800;48.922;9.444;2023-03-31T09:40:37;6.00;;;1.90;;
7517;SDS011;3800;48.922;9.444;2023-03-31T09:43:09;4.27;;;1.60;;
7517;SDS011;3800;48.922;9.444;2023-03-31T09:45:37;3.83;;;1.57;;
7517;SDS011;3800;48.922;9.444;2023-03-31T09:48:10;3.40;;;1.70;;
7517;SDS011;3800;48.922;9.444;2023-03-31T09:50:44;3.53;;;1.77;;
7517;SDS011;3800;48.922;9.444;2023-03-31T09:53:17;4.30;;;1.60;;
7517;SDS011;3800;48.922;9.444;2023-03-31T09:55:48;6.00;;;1.80;;
7517;SDS011;3800;48.922;9.444;2023-03-31T09:58:15;7.90;;;1.70;;
7517;SDS011;3800;48.922;9.444;2023-03-31T10:00:55;4.77;;;1.70;;
7517;SDS011;3800;48.922;9.444;2023-03-31T10:03:24;4.27;;;1.60;;
7517;SDS011;3800;48.922;9.444;2023-03-31T10:05:53;5.77;;;1.77;;
7517;SDS011;3800;48.922;9.444;2023-03-31T10:08:24;10.93;;;2.20;;
7517;SDS011;3800;48.922;9.444;2023-03-31T10:11:08;10.50;;;2.10;;
7517;SDS011;3800;48.922;9.444;2023-03-31T10:13:42;5.27;;;1.93;;
7517;SDS011;3800;48.922;9.444;2023-03-31T10:16:33;7.37;;;1.80;;
7517;SDS011;3800;48.922;9.444;2023-03-31T10:21:39;7.80;;;2.50;;
7517;SDS011;3800;48.922;9.444;2023-03-31T10:24:08;5.53;;;2.07;;
7517;SDS011;3800;48.922;9.444;2023-03-31T10:26:36;8.37;;;2.20;;
7517;SDS011;3800;48.922;9.444;2023-03-31T10:29:10;5.90;;;1.60;;
7517;SDS011;3800;48.922;9.444;2023-03-31T10:31:38;4.50;;;1.80;;
7517;SDS011;3800;48.922;9.444;2023-03-31T10:34:07;4.47;;;1.67;;
7517;SDS011;3800;48.922;9.444;2023-03-31T10:36:35;4.27;;;2.00;;
7517;SDS011;3800;48.922;9.444;2023-03-31T10:39:05;2.63;;;1.40;;
7517;SDS011;3800;48.922;9.444;2023-03-31T10:41:32;7.17;;;1.93;;
7517;SDS011;3800;48.922;9.444;2023-03-31T10:44:01;3.53;;;1.80;;
7517;SDS011;3800;48.922;9.444;2023-03-31T10:54:20;11.27;;;3.17;;
7517;SDS011;3800;48.922;9.444;2023-03-31T10:56:51;9.17;;;2.53;;
7517;SDS011;3800;48.922;9.444;2023-03-31T10:59:28;3.63;;;1.70;;
7517;SDS011;3800;48.922;9.444;2023-03-31T11:02:05;6.33;;;1.67;;
7517;SDS011;3800;48.922;9.444;2023-03-31T11:07:46;5.87;;;1.97;;
7517;SDS011;3800;48.922;9.444;2023-03-31T11:10:34;4.10;;;1.63;;
7517;SDS011;3800;48.922;9.444;2023-03-31T11:13:21;7.23;;;2.00;;
7517;SDS011;3800;48.922;9.444;2023-03-31T11:16:10;6.80;;;2.20;;
7517;SDS011;3800;48.922;9.444;2023-03-31T11:19:00;5.90;;;1.90;;
7517;SDS011;3800;48.922;9.444;2023-03-31T11:21:43;5.63;;;1.93;;
7517;SDS011;3800;48.922;9.444;2023-03-31T11:24:17;4.00;;;2.07;;
7517;SDS011;3800;48.922;9.444;2023-03-31T11:26:59;5.50;;;1.60;;
7517;SDS011;3800;48.922;9.444;2023-03-31T11:29:42;9.00;;;1.97;;
7517;SDS011;3800;48.922;9.444;2023-03-31T11:35:36;3.80;;;1.80;;
7517;SDS011;3800;48.922;9.444;2023-03-31T11:37:53;6.30;;;1.70;;
7517;SDS011;3800;48.922;9.444;2023-03-31T11:43:23;3.87;;;1.20;;
7517;SDS011;3800;48.922;9.444;2023-03-31T11:45:57;1.77;;;1.00;;
7517;SDS011;3800;48.922;9.444;2023-03-31T11:48:38;1.13;;;1.00;;
7517;SDS011;3800;48.922;9.444;2023-03-31T11:51:18;2.10;;;1.10;;
7517;SDS011;3800;48.922;9.444;2023-03-31T11:53:44;1.43;;;1.00;;
7517;SDS011;3800;48.922;9.444;2023-03-31T11:56:13;1.87;;;1.00;;
7517;SDS011;3800;48.922;9.444;2023-03-31T11:58:46;1.93;;;1.17;;
7517;SDS011;3800;48.922;9.444;2023-03-31T12:01:27;1.80;;;1.00;;
7517;SDS011;3800;48.922;9.444;2023-03-31T12:03:59;1.97;;;1.10;;
7517;SDS011;3800;48.922;9.444;2023-03-31T12:06:28;2.07;;;0.90;;
7517;SDS011;3800;48.922;9.444;2023-03-31T12:09:06;2.27;;;1.20;;
7517;SDS011;3800;48.922;9.444;2023-03-31T12:11:51;2.30;;;1.20;;
7517;SDS011;3800;48.922;9.444;2023-03-31T12:17:10;1.60;;;0.87;;
7517;SDS011;3800;48.922;9.444;2023-03-31T12:19:43;1.87;;;1.10;;
7517;SDS011;3800;48.922;9.444;2023-03-31T12:24:45;2.47;;;1.00;;
7517;SDS011;3800;48.922;9.444;2023-03-31T12:27:16;1.90;;;1.00;;
7517;SDS011;3800;48.922;9.444;2023-03-31T12:29:45;2.13;;;1.00;;
7517;SDS011;3800;48.922;9.444;2023-03-31T12:32:14;1.63;;;1.13;;
7517;SDS011;3800;48.922;9.444;2023-03-31T12:34:47;1.17;;;1.00;;
7517;SDS011;3800;48.922;9.444;2023-03-31T12:37:21;1.80;;;1.03;;
7517;SDS011;3800;48.922;9.444;2023-03-31T12:40:03;1.87;;;0.90;;
7517;SDS011;3800;48.922;9.444;2023-03-31T12:42:40;1.73;;;1.00;;
7517;SDS011;3800;48.922;9.444;2023-03-31T12:45:13;2.50;;;1.20;;
7517;SDS011;3800;48.922;9.444;2023-03-31T12:48:05;2.60;;;1.20;;
7517;SDS011;3800;48.922;9.444;2023-03-31T12:51:06;2.97;;;1.23;;
7517;SDS011;3800;48.922;9.444;2023-03-31T12:53:48;2.90;;;1.10;;
7517;SDS011;3800;48.922;9.444;2023-03-31T12:56:21;3.60;;;1.30;;
7517;SDS011;3800;48.922;9.444;2023-03-31T12:58:49;3.93;;;1.30;;
7517;SDS011;3800;48.922;9.444;2023-03-31T13:01:18;3.37;;;1.27;;
7517;SDS011;3800;48.922;9.444;2023-03-31T13:03:53;3.93;;;1.30;;
7517;SDS011;3800;48.922;9.444;2023-03-31T13:12:15;3.60;;;1.47;;
7517;SDS011;3800;48.922;9.444;2023-03-31T13:14:46;2.87;;;1.30;;
7517;SDS011;3800;48.922;9.444;2023-03-31T13:17:22;3.70;;;1.20;;
7517;SDS011;3800;48.922;9.444;2023-03-31T13:19:53;3.27;;;1.40;;
7517;SDS011;3800;48.922;9.444;2023-03-31T13:22:27;4.70;;;1.67;;
7517;SDS011;3800;48.922;9.444;2023-03-31T13:27:47;3.63;;;1.37;;
7517;SDS011;3800;48.922;9.444;2023-03-31T13:33:06;3.13;;;1.30;;
7517;SDS011;3800;48.922;9.444;2023-03-31T13:35:43;3.10;;;1.30;;
7517;SDS011;3800;48.922;9.444;2023-03-31T13:46:46;4.20;;;1.30;;
7517;SDS011;3800;48.922;9.444;2023-03-31T13:49:26;3.80;;;1.40;;
7517;SDS011;3800;48.922;9.444;2023-03-31T13:51:58;1.67;;;1.00;;
7517;SDS011;3800;48.922;9.444;2023-03-31T13:54:35;2.23;;;1.10;;
7517;SDS011;3800;48.922;9.444;2023-03-31T13:57:32;2.67;;;0.93;;
7517;SDS011;3800;48.922;9.444;2023-03-31T14:00:20;4.80;;;1.03;;
7517;SDS011;3800;48.922;9.444;2023-03-31T14:05:46;2.17;;;1.10;;
7517;SDS011;3800;48.922;9.444;2023-03-31T14:08:19;0.97;;;0.80;;
7517;SDS011;3800;48.922;9.444;2023-03-31T14:10:50;0.80;;;0.80;;
7517;SDS011;3800;48.922;9.444;2023-03-31T14:13:23;3.27;;;0.97;;
7517;SDS011;3800;48.922;9.444;2023-03-31T14:15:52;1.50;;;1.00;;
7517;SDS011;3800;48.922;9.444;2023-03-31T14:18:23;1.63;;;1.10;;
7517;SDS011;3800;48.922;9.444;2023-03-31T14:26:58;2.13;;;1.00;;
7517;SDS011;3800;48.922;9.444;2023-03-31T14:29:23;1.47;;;1.00;;
7517;SDS011;3800;48.922;9.444;2023-03-31T14:31:55;2.17;;;1.20;;
7517;SDS011;3800;48.922;9.444;2023-03-31T14:34:41;2.90;;;1.20;;
7517;SDS011;3800;48.922;9.444;2023-03-31T14:37:26;2.00;;;1.10;;
7517;SDS011;3800;48.922;9.444;2023-03-31T14:39:54;2.43;;;1.30;;
7517;SDS011;3800;48.922;9.444;2023-03-31T14:42:23;2.80;;;1.40;;
7517;SDS011;3800;48.922;9.444;2023-03-31T14:44:55;1.80;;;1.10;;
7517;SDS011;3800;48.922;9.444;2023-03-31T14:47:24;1.90;;;1.00;;
7517;SDS011;3800;48.922;9.444;2023-03-31T14:52:38;2.00;;;1.03;;
7517;SDS011;3800;48.922;9.444;2023-03-31T14:55:12;3.33;;;1.30;;
7517;SDS011;3800;48.922;9.444;2023-03-31T14:57:36;2.87;;;1.13;;
7517;SDS011;3800;48.922;9.444;2023-03-31T15:00:05;3.33;;;1.20;;
7517;SDS011;3800;48.922;9.444;2023-03-31T15:02:35;2.97;;;1.00;;
7517;SDS011;3800;48.922;9.444;2023-03-31T15:05:04;1.83;;;1.17;;
7517;SDS011;3800;48.922;9.444;2023-03-31T15:07:31;1.70;;;0.90;;
7517;SDS011;3800;48.922;9.444;2023-03-31T15:10:00;1.63;;;1.10;;
7517;SDS011;3800;48.922;9.444;2023-03-31T15:12:28;2.40;;;1.20;;
7517;SDS011;3800;48.922;9.444;2023-03-31T15:14:59;1.23;;;0.90;;
7517;SDS011;3800;48.922;9.444;2023-03-31T15:17:28;2.77;;;1.33;;
7517;SDS011;3800;48.922;9.444;2023-03-31T15:19:57;2.83;;;1.10;;
7517;SDS011;3800;48.922;9.444;2023-03-31T15:22:25;2.87;;;1.00;;
7517;SDS011;3800;48.922;9.444;2023-03-31T15:24:53;2.63;;;1.00;;
7517;SDS011;3800;48.922;9.444;2023-03-31T15:27:25;2.70;;;1.03;;
7517;SDS011;3800;48.922;9.444;2023-03-31T15:30:01;1.93;;;1.03;;
7517;SDS011;3800;48.922;9.444;2023-03-31T15:32:30;2.17;;;1.00;;
7517;SDS011;3800;48.922;9.444;2023-03-31T15:34:58;1.90;;;0.90;;
7517;SDS011;3800;48.922;9.444;2023-03-31T15:37:28;2.27;;;1.07;;
7517;SDS011;3800;48.922;9.444;2023-03-31T15:39:55;1.63;;;0.90;;
7517;SDS011;3800;48.922;9.444;2023-03-31T15:42:24;1.80;;;1.00;;
7517;SDS011;3800;48.922;9.444;2023-03-31T15:44:53;2.30;;;1.00;;
7517;SDS011;3800;48.922;9.444;2023-03-31T15:47:23;3.33;;;1.17;;
7517;SDS011;3800;48.922;9.444;2023-03-31T15:49:56;1.87;;;1.00;;
7517;SDS011;3800;48.922;9.444;2023-03-31T15:52:46;4.73;;;1.40;;
7517;SDS011;3800;48.922;9.444;2023-03-31T15:57:59;2.07;;;1.20;;
7517;SDS011;3800;48.922;9.444;2023-03-31T16:00:46;1.43;;;1.13;;
7517;SDS011;3800;48.922;9.444;2023-03-31T16:03:22;1.90;;;1.23;;
7517;SDS011;3800;48.922;9.444;2023-03-31T16:05:57;2.70;;;1.30;;
7517;SDS011;3800;48.922;9.444;2023-03-31T16:08:34;2.83;;;1.20;;
7517;SDS011;3800;48.922;9.444;2023-03-31T16:11:07;2.43;;;1.20;;
7517;SDS011;3800;48.922;9.444;2023-03-31T16:13:36;2.33;;;1.50;;
7517;SDS011;3800;48.922;9.444;2023-03-31T16:16:05;5.17;;;1.60;;
7517;SDS011;3800;48.922;9.444;2023-03-31T16:18:32;3.13;;;1.73;;
7517;SDS011;3800;48.922;9.444;2023-03-31T16:21:02;4.57;;;1.57;;
7517;SDS011;3800;48.922;9.444;2023-03-31T16:23:30;3.97;;;1.50;;
7517;SDS011;3800;48.922;9.444;2023-03-31T16:25:58;2.17;;;1.20;;
7517;SDS011;3800;48.922;9.444;2023-03-31T16:28:28;4.33;;;1.30;;
7517;SDS011;3800;48.922;9.444;2023-03-31T16:30:55;2.87;;;1.20;;
7517;SDS011;3800;48.922;9.444;2023-03-31T16:33:24;5.60;;;1.60;;
7517;SDS011;3800;48.922;9.444;2023-03-31T16:35:53;3.70;;;1.30;;
7517;SDS011;3800;48.922;9.444;2023-03-31T16:38:22;4.80;;;1.37;;
7517;SDS011;3800;48.922;9.444;2023-03-31T16:40:50;2.80;;;1.40;;
7517;SDS011;3800;48.922;9.444;2023-03-31T16:43:21;2.07;;;1.03;;
7517;SDS011;3800;48.922;9.444;2023-03-31T16:45:51;4.73;;;1.70;;
7517;SDS011;3800;48.922;9.444;2023-03-31T16:48:21;1.67;;;1.40;;
7517;SDS011;3800;48.922;9.444;2023-03-31T16:50:50;3.07;;;1.40;;
7517;SDS011;3800;48.922;9.444;2023-03-31T16:53:22;2.73;;;1.30;;
7517;SDS011;3800;48.922;9.444;2023-03-31T16:55:50;2.43;;;1.20;;
7517;SDS011;3800;48.922;9.444;2023-03-31T16:58:18;2.57;;;1.20;;
7517;SDS011;3800;48.922;9.444;2023-03-31T17:00:46;2.60;;;1.00;;
7517;SDS011;3800;48.922;9.444;2023-03-31T17:03:15;2.93;;;1.20;;
7517;SDS011;3800;48.922;9.444;2023-03-31T17:05:45;1.37;;;1.00;;